sensor_id;sensor_type;location;lat;lon;timestamp;pressure;altitude;pressure_sealevel;temperature;humidity
67013;BME280;53926;47.406;19.188;2023-02-10T00:01:19;102509.00;;;-9.64;100.00
67013;BME280;53926;47.406;19.188;2023-02-10T00:03:47;102514.50;;;-9.40;100.00
67013;BME280;53926;47.406;19.188;2023-02-10T00:06:15;102516.56;;;-9.65;100.00
67013;BME280;53926;47.406;19.188;2023-02-10T00:08:45;102517.66;;;-9.83;100.00
67013;BME280;53926;47.406;19.188;2023-02-10T00:11:12;102522.47;;;-9.66;100.00
67013;BME280;53926;47.406;19.188;2023-02-10T00:13:39;102519.97;;;-9.68;100.00
67013;BME280;53926;47.406;19.188;2023-02-10T00:16:07;102525.53;;;-9.47;100.00
67013;BME280;53926;47.406;19.188;2023-02-10T00:18:34;102524.94;;;-9.63;100.00
67013;BME280;53926;47.406;19.188;2023-02-10T00:21:15;102532.06;;;-9.92;100.00
67013;BME280;53926;47.406;19.188;2023-02-10T00:23:43;102539.34;;;-9.72;100.00
67013;BME280;53926;47.406;19.188;2023-02-10T00:26:11;102534.34;;;-9.75;100.00
67013;BME280;53926;47.406;19.188;2023-02-10T00:28:38;102525.37;;;-9.94;100.00
67013;BME280;53926;47.406;19.188;2023-02-10T00:31:10;102533.12;;;-10.11;100.00
67013;BME280;53926;47.406;19.188;2023-02-10T00:33:38;102521.25;;;-10.01;100.00
67013;BME280;53926;47.406;19.188;2023-02-10T00:36:09;102530.00;;;-9.63;100.00
67013;BME280;53926;47.406;19.188;2023-02-10T00:38:37;102528.25;;;-9.61;100.00
67013;BME280;53926;47.406;19.188;2023-02-10T00:41:16;102533.59;;;-9.83;100.00
67013;BME280;53926;47.406;19.188;2023-02-10T00:43:43;102535.53;;;-10.02;100.00
67013;BME280;53926;47.406;19.188;2023-02-10T00:46:12;102534.47;;;-9.84;100.00
67013;BME280;53926;47.406;19.188;2023-02-10T00:48:41;102527.78;;;-9.86;100.00
67013;BME280;53926;47.406;19.188;2023-02-10T00:51:08;102532.72;;;-9.79;100.00
67013;BME280;53926;47.406;19.188;2023-02-10T00:53:35;102542.44;;;-10.16;100.00
67013;BME280;53926;47.406;19.188;2023-02-10T00:56:02;102533.53;;;-9.77;100.00
67013;BME280;53926;47.406;19.188;2023-02-10T00:58:29;102526.03;;;-9.83;100.00
67013;BME280;53926;47.406;19.188;2023-02-10T01:00:56;102529.72;;;-10.05;100.00
67013;BME280;53926;47.406;19.188;2023-02-10T01:03:23;102527.06;;;-9.95;100.00
67013;BME280;53926;47.406;19.188;2023-02-10T01:05:50;102529.75;;;-10.09;100.00
67013;BME280;53926;47.406;19.188;2023-02-10T01:08:17;102518.19;;;-10.25;100.00
67013;BME280;53926;47.406;19.188;2023-02-10T01:10:44;102530.69;;;-10.17;100.00
67013;BME280;53926;47.406;19.188;2023-02-10T01:13:12;102519.50;;;-9.95;100.00
67013;BME280;53926;47.406;19.188;2023-02-10T01:15:43;102526.47;;;-10.15;100.00
67013;BME280;53926;47.406;19.188;2023-02-10T01:18:11;102520.91;;;-10.39;100.00
67013;BME280;53926;47.406;19.188;2023-02-10T01:20:42;102515.72;;;-10.31;100.00
67013;BME280;53926;47.406;19.188;2023-02-10T01:23:09;102520.53;;;-10.11;100.00
67013;BME280;53926;47.406;19.188;2023-02-10T01:25:37;102523.12;;;-10.17;100.00
67013;BME280;53926;47.406;19.188;2023-02-10T01:28:04;102506.69;;;-10.46;100.00
67013;BME280;53926;47.406;19.188;2023-02-10T01:30:32;102501.47;;;-10.32;100.00
67013;BME280;53926;47.406;19.188;2023-02-10T01:32:58;102498.00;;;-10.23;100.00
67013;BME280;53926;47.406;19.188;2023-02-10T01:35:25;102505.75;;;-10.37;100.00
67013;BME280;53926;47.406;19.188;2023-02-10T01:37:52;102505.72;;;-10.33;100.00
67013;BME280;53926;47.406;19.188;2023-02-10T01:40:21;102506.59;;;-10.37;100.00
67013;BME280;53926;47.406;19.188;2023-02-10T01:42:48;102505.13;;;-10.56;100.00
67013;BME280;53926;47.406;19.188;2023-02-10T01:45:19;102505.72;;;-10.33;100.00
67013;BME280;53926;47.406;19.188;2023-02-10T01:47:48;102505.97;;;-10.56;100.00
67013;BME280;53926;47.406;19.188;2023-02-10T01:50:17;102497.13;;;-10.19;100.00
67013;BME280;53926;47.406;19.188;2023-02-10T01:52:44;102504.13;;;-10.41;100.00
67013;BME280;53926;47.406;19.188;2023-02-10T01:55:15;102502.53;;;-10.47;100.00
67013;BME280;53926;47.406;19.188;2023-02-10T01:57:43;102502.56;;;-10.50;100.00
67013;BME280;53926;47.406;19.188;2023-02-10T02:00:11;102508.41;;;-10.50;100.00
67013;BME280;53926;47.406;19.188;2023-02-10T02:02:41;102503.53;;;-9.97;100.00
67013;BME280;53926;47.406;19.188;2023-02-10T02:05:28;102498.66;;;-10.08;100.00
67013;BME280;53926;47.406;19.188;2023-02-10T02:08:03;102500.06;;;-10.56;100.00
67013;BME280;53926;47.406;19.188;2023-02-10T02:13:27;102495.09;;;-10.63;100.00
67013;BME280;53926;47.406;19.188;2023-02-10T02:19:45;102486.56;;;-10.48;100.00
67013;BME280;53926;47.406;19.188;2023-02-10T02:25:50;102494.00;;;-10.37;100.00
67013;BME280;53926;47.406;19.188;2023-02-10T02:33:18;102486.50;;;-10.41;100.00
67013;BME280;53926;47.406;19.188;2023-02-10T02:35:53;102484.78;;;-10.36;100.00
67013;BME280;53926;47.406;19.188;2023-02-10T02:38:21;102469.63;;;-10.33;100.00
67013;BME280;53926;47.406;19.188;2023-02-10T02:40:49;102481.66;;;-10.60;100.00
67013;BME280;53926;47.406;19.188;2023-02-10T02:43:16;102480.69;;;-10.48;100.00
67013;BME280;53926;47.406;19.188;2023-02-10T02:45:52;102477.94;;;-10.30;100.00
67013;BME280;53926;47.406;19.188;2023-02-10T02:51:21;102478.16;;;-10.45;100.00
67013;BME280;53926;47.406;19.188;2023-02-10T02:56:49;102488.16;;;-10.40;100.00
67013;BME280;53926;47.406;19.188;2023-02-10T02:59:36;102485.66;;;-10.42;100.00
67013;BME280;53926;47.406;19.188;2023-02-10T03:02:11;102481.31;;;-10.32;100.00
67013;BME280;53926;47.406;19.188;2023-02-10T03:04:39;102482.25;;;-10.36;100.00
67013;BME280;53926;47.406;19.188;2023-02-10T03:07:06;102479.56;;;-10.26;100.00
67013;BME280;53926;47.406;19.188;2023-02-10T03:09:33;102478.47;;;-10.06;100.00
67013;BME280;53926;47.406;19.188;2023-02-10T03:12:00;102478.69;;;-10.25;100.00
67013;BME280;53926;47.406;19.188;2023-02-10T03:14:27;102492.44;;;-10.47;100.00
67013;BME280;53926;47.406;19.188;2023-02-10T03:16:54;102489.12;;;-10.51;100.00
67013;BME280;53926;47.406;19.188;2023-02-10T03:19:20;102485.88;;;-10.59;100.00
67013;BME280;53926;47.406;19.188;2023-02-10T03:21:47;102486.81;;;-10.69;100.00
67013;BME280;53926;47.406;19.188;2023-02-10T03:24:14;102481.88;;;-10.79;100.00
67013;BME280;53926;47.406;19.188;2023-02-10T03:26:41;102492.91;;;-10.93;100.00
67013;BME280;53926;47.406;19.188;2023-02-10T03:29:09;102485.22;;;-10.80;100.00
67013;BME280;53926;47.406;19.188;2023-02-10T03:31:36;102486.25;;;-10.96;100.00
67013;BME280;53926;47.406;19.188;2023-02-10T03:34:02;102479.38;;;-10.82;100.00
67013;BME280;53926;47.406;19.188;2023-02-10T03:36:29;102489.38;;;-10.75;100.00
67013;BME280;53926;47.406;19.188;2023-02-10T03:38:56;102485.16;;;-10.73;100.00
67013;BME280;53926;47.406;19.188;2023-02-10T03:41:23;102494.47;;;-10.82;100.00
67013;BME280;53926;47.406;19.188;2023-02-10T03:43:49;102495.53;;;-11.06;100.00
67013;BME280;53926;47.406;19.188;2023-02-10T03:46:16;102491.94;;;-10.79;100.00
67013;BME280;53926;47.406;19.188;2023-02-10T03:48:43;102495.38;;;-10.90;100.00
67013;BME280;53926;47.406;19.188;2023-02-10T03:51:10;102484.37;;;-10.77;100.00
67013;BME280;53926;47.406;19.188;2023-02-10T03:53:36;102486.66;;;-10.55;100.00
67013;BME280;53926;47.406;19.188;2023-02-10T03:56:03;102489.88;;;-10.43;100.00
67013;BME280;53926;47.406;19.188;2023-02-10T03:58:30;102488.53;;;-10.73;100.00
67013;BME280;53926;47.406;19.188;2023-02-10T04:00:57;102489.41;;;-10.77;100.00
67013;BME280;53926;47.406;19.188;2023-02-10T04:03:23;102479.88;;;-10.47;100.00
67013;BME280;53926;47.406;19.188;2023-02-10T04:05:50;102470.91;;;-10.73;100.00
67013;BME280;53926;47.406;19.188;2023-02-10T04:08:17;102469.25;;;-10.77;100.00
67013;BME280;53926;47.406;19.188;2023-02-10T04:10:43;102472.66;;;-10.81;100.00
67013;BME280;53926;47.406;19.188;2023-02-10T04:13:10;102478.63;;;-10.88;100.00
67013;BME280;53926;47.406;19.188;2023-02-10T04:15:37;102469.25;;;-10.77;100.00
67013;BME280;53926;47.406;19.188;2023-02-10T04:18:03;102457.69;;;-10.95;100.00
67013;BME280;53926;47.406;19.188;2023-02-10T04:20:30;102456.87;;;-10.95;100.00
67013;BME280;53926;47.406;19.188;2023-02-10T04:22:57;102457.50;;;-10.76;100.00
67013;BME280;53926;47.406;19.188;2023-02-10T04:25:24;102454.03;;;-10.65;100.00
67013;BME280;53926;47.406;19.188;2023-02-10T04:27:51;102454.34;;;-10.22;100.00
67013;BME280;53926;47.406;19.188;2023-02-10T04:30:18;102452.94;;;-10.42;100.00
67013;BME280;53926;47.406;19.188;2023-02-10T04:32:44;102454.78;;;-10.59;100.00
67013;BME280;53926;47.406;19.188;2023-02-10T04:35:11;102456.69;;;-10.79;100.00
67013;BME280;53926;47.406;19.188;2023-02-10T04:37:37;102453.50;;;-10.93;100.00
67013;BME280;53926;47.406;19.188;2023-02-10T04:40:04;102455.25;;;-11.03;100.00
67013;BME280;53926;47.406;19.188;2023-02-10T04:42:31;102459.41;;;-10.97;100.00
67013;BME280;53926;47.406;19.188;2023-02-10T04:44:58;102461.78;;;-10.85;100.00
67013;BME280;53926;47.406;19.188;2023-02-10T04:47:27;102451.84;;;-10.95;100.00
67013;BME280;53926;47.406;19.188;2023-02-10T04:49:54;102456.53;;;-10.63;100.00
67013;BME280;53926;47.406;19.188;2023-02-10T04:52:21;102457.66;;;-10.90;100.00
67013;BME280;53926;47.406;19.188;2023-02-10T04:54:48;102457.69;;;-10.93;100.00
67013;BME280;53926;47.406;19.188;2023-02-10T04:57:14;102467.59;;;-10.80;100.00
67013;BME280;53926;47.406;19.188;2023-02-10T04:59:41;102459.38;;;-10.95;100.00
67013;BME280;53926;47.406;19.188;2023-02-10T05:02:08;102470.34;;;-11.03;100.00
67013;BME280;53926;47.406;19.188;2023-02-10T05:04:34;102472.69;;;-10.86;100.00
67013;BME280;53926;47.406;19.188;2023-02-10T05:07:01;102481.88;;;-10.82;100.00
67013;BME280;53926;47.406;19.188;2023-02-10T05:09:28;102491.22;;;-10.90;100.00
67013;BME280;53926;47.406;19.188;2023-02-10T05:11:55;102499.59;;;-10.89;100.00
67013;BME280;53926;47.406;19.188;2023-02-10T05:14:22;102504.50;;;-10.77;100.00
67013;BME280;53926;47.406;19.188;2023-02-10T05:16:48;102506.00;;;-10.57;100.00
67013;BME280;53926;47.406;19.188;2023-02-10T05:19:15;102516.09;;;-10.61;100.00
67013;BME280;53926;47.406;19.188;2023-02-10T05:21:42;102518.47;;;-10.48;100.00
67013;BME280;53926;47.406;19.188;2023-02-10T05:24:08;102515.91;;;-10.44;100.00
67013;BME280;53926;47.406;19.188;2023-02-10T05:26:35;102520.28;;;-10.63;100.00
67013;BME280;53926;47.406;19.188;2023-02-10T05:29:03;102510.47;;;-10.87;100.00
67013;BME280;53926;47.406;19.188;2023-02-10T05:31:29;102520.28;;;-10.63;100.00
67013;BME280;53926;47.406;19.188;2023-02-10T05:33:56;102525.69;;;-11.03;100.00
67013;BME280;53926;47.406;19.188;2023-02-10T05:36:23;102522.50;;;-11.22;100.00
67013;BME280;53926;47.406;19.188;2023-02-10T05:38:51;102519.81;;;-11.00;100.00
67013;BME280;53926;47.406;19.188;2023-02-10T05:41:36;102521.63;;;-11.16;100.00
67013;BME280;53926;47.406;19.188;2023-02-10T05:44:03;102529.03;;;-10.98;100.00
67013;BME280;53926;47.406;19.188;2023-02-10T05:46:30;102541.87;;;-11.30;100.00
67013;BME280;53926;47.406;19.188;2023-02-10T05:48:56;102533.56;;;-11.43;100.00
67013;BME280;53926;47.406;19.188;2023-02-10T05:51:23;102528.47;;;-11.37;100.00
67013;BME280;53926;47.406;19.188;2023-02-10T05:53:50;102523.22;;;-11.09;100.00
67013;BME280;53926;47.406;19.188;2023-02-10T05:56:16;102522.78;;;-10.61;100.00
67013;BME280;53926;47.406;19.188;2023-02-10T05:58:43;102531.31;;;-10.71;100.00
67013;BME280;53926;47.406;19.188;2023-02-10T06:01:10;102530.56;;;-10.84;100.00
67013;BME280;53926;47.406;19.188;2023-02-10T06:03:36;102535.78;;;-11.06;100.00
67013;BME280;53926;47.406;19.188;2023-02-10T06:06:03;102534.13;;;-11.05;100.00
67013;BME280;53926;47.406;19.188;2023-02-10T06:08:30;102532.34;;;-10.94;100.00
67013;BME280;53926;47.406;19.188;2023-02-10T06:10:57;102524.63;;;-10.77;100.00
67013;BME280;53926;47.406;19.188;2023-02-10T06:13:23;102521.81;;;-10.48;100.00
67013;BME280;53926;47.406;19.188;2023-02-10T06:15:50;102517.84;;;-10.69;100.00
67013;BME280;53926;47.406;19.188;2023-02-10T06:18:17;102514.41;;;-10.60;100.00
67013;BME280;53926;47.406;19.188;2023-02-10T06:20:47;102517.53;;;-10.38;100.00
67013;BME280;53926;47.406;19.188;2023-02-10T06:23:14;102518.97;;;-10.21;100.00
67013;BME280;53926;47.406;19.188;2023-02-10T06:25:40;102530.00;;;-10.29;100.00
67013;BME280;53926;47.406;19.188;2023-02-10T06:28:07;102535.75;;;-10.20;100.00
67013;BME280;53926;47.406;19.188;2023-02-10T06:30:34;102536.41;;;-10.06;100.00
67013;BME280;53926;47.406;19.188;2023-02-10T06:33:01;102532.13;;;-9.98;100.00
67013;BME280;53926;47.406;19.188;2023-02-10T06:35:28;102539.75;;;-10.02;100.00
67013;BME280;53926;47.406;19.188;2023-02-10T06:37:55;102537.75;;;-9.79;100.00
67013;BME280;53926;47.406;19.188;2023-02-10T06:40:21;102535.84;;;-9.63;100.00
67013;BME280;53926;47.406;19.188;2023-02-10T06:42:48;102534.13;;;-9.58;100.00
67013;BME280;53926;47.406;19.188;2023-02-10T06:45:15;102539.56;;;-9.29;100.00
67013;BME280;53926;47.406;19.188;2023-02-10T06:47:41;102544.34;;;-9.12;100.00
67013;BME280;53926;47.406;19.188;2023-02-10T06:50:08;102555.06;;;-8.98;100.00
67013;BME280;53926;47.406;19.188;2023-02-10T06:52:35;102561.59;;;-8.86;100.00
67013;BME280;53926;47.406;19.188;2023-02-10T06:55:07;102570.72;;;-8.77;100.00
67013;BME280;53926;47.406;19.188;2023-02-10T06:57:35;102569.63;;;-8.64;100.00
67013;BME280;53926;47.406;19.188;2023-02-10T07:00:09;102581.34;;;-8.58;100.00
67013;BME280;53926;47.406;19.188;2023-02-10T07:02:39;102576.31;;;-8.60;100.00
67013;BME280;53926;47.406;19.188;2023-02-10T07:05:09;102583.78;;;-8.54;100.00
67013;BME280;53926;47.406;19.188;2023-02-10T07:07:37;102598.03;;;-8.50;100.00
67013;BME280;53926;47.406;19.188;2023-02-10T07:10:05;102596.78;;;-8.30;100.00
67013;BME280;53926;47.406;19.188;2023-02-10T07:12:31;102598.03;;;-8.06;100.00
67013;BME280;53926;47.406;19.188;2023-02-10T07:14:58;102586.66;;;-7.85;100.00
67013;BME280;53926;47.406;19.188;2023-02-10T07:17:25;102586.41;;;-7.73;100.00
67013;BME280;53926;47.406;19.188;2023-02-10T07:19:54;102582.81;;;-7.62;100.00
67013;BME280;53926;47.406;19.188;2023-02-10T07:22:23;102584.22;;;-7.50;100.00
67013;BME280;53926;47.406;19.188;2023-02-10T07:24:50;102579.75;;;-7.38;100.00
67013;BME280;53926;47.406;19.188;2023-02-10T07:27:17;102576.13;;;-7.27;100.00
67013;BME280;53926;47.406;19.188;2023-02-10T07:29:43;102569.91;;;-7.14;100.00
67013;BME280;53926;47.406;19.188;2023-02-10T07:32:10;102582.31;;;-7.03;100.00
67013;BME280;53926;47.406;19.188;2023-02-10T07:34:37;102576.69;;;-6.80;100.00
67013;BME280;53926;47.406;19.188;2023-02-10T07:37:07;102565.41;;;-6.68;100.00
67013;BME280;53926;47.406;19.188;2023-02-10T07:39:34;102575.06;;;-6.50;100.00
67013;BME280;53926;47.406;19.188;2023-02-10T07:42:00;102587.97;;;-6.26;100.00
67013;BME280;53926;47.406;19.188;2023-02-10T07:44:27;102588.31;;;-6.08;100.00
67013;BME280;53926;47.406;19.188;2023-02-10T07:46:54;102580.34;;;-5.96;100.00
67013;BME280;53926;47.406;19.188;2023-02-10T07:49:20;102578.13;;;-5.77;100.00
67013;BME280;53926;47.406;19.188;2023-02-10T07:51:47;102588.81;;;-5.67;100.00
67013;BME280;53926;47.406;19.188;2023-02-10T07:54:14;102583.97;;;-5.47;100.00
67013;BME280;53926;47.406;19.188;2023-02-10T07:56:40;102574.25;;;-5.32;100.00
67013;BME280;53926;47.406;19.188;2023-02-10T07:59:07;102578.31;;;-5.28;100.00
67013;BME280;53926;47.406;19.188;2023-02-10T08:01:34;102577.00;;;-5.13;100.00
67013;BME280;53926;47.406;19.188;2023-02-10T08:04:08;102572.19;;;-4.94;100.00
67013;BME280;53926;47.406;19.188;2023-02-10T08:06:35;102571.84;;;-4.83;100.00
67013;BME280;53926;47.406;19.188;2023-02-10T08:09:02;102574.22;;;-4.79;100.00
67013;BME280;53926;47.406;19.188;2023-02-10T08:11:29;102591.41;;;-4.60;100.00
67013;BME280;53926;47.406;19.188;2023-02-10T08:13:58;102576.53;;;-4.47;100.00
67013;BME280;53926;47.406;19.188;2023-02-10T08:16:26;102585.41;;;-3.87;100.00
67013;BME280;53926;47.406;19.188;2023-02-10T08:18:53;102586.31;;;-3.66;100.00
67013;BME280;53926;47.406;19.188;2023-02-10T08:21:20;102591.34;;;-3.42;100.00
67013;BME280;53926;47.406;19.188;2023-02-10T08:23:46;102579.53;;;-2.59;100.00
67013;BME280;53926;47.406;19.188;2023-02-10T08:26:14;102583.47;;;-1.55;100.00
67013;BME280;53926;47.406;19.188;2023-02-10T08:28:41;102582.94;;;-0.57;100.00
67013;BME280;53926;47.406;19.188;2023-02-10T08:31:09;102579.03;;;-0.31;100.00
67013;BME280;53926;47.406;19.188;2023-02-10T08:33:38;102580.16;;;0.29;100.00
67013;BME280;53926;47.406;19.188;2023-02-10T08:36:14;102580.53;;;0.69;100.00
67013;BME280;53926;47.406;19.188;2023-02-10T08:38:41;102587.81;;;1.93;97.41
67013;BME280;53926;47.406;19.188;2023-02-10T08:41:08;102585.56;;;2.71;83.78
67013;BME280;53926;47.406;19.188;2023-02-10T08:43:35;102574.69;;;4.79;87.63
67013;BME280;53926;47.406;19.188;2023-02-10T08:46:03;102577.19;;;5.04;82.24
67013;BME280;53926;47.406;19.188;2023-02-10T08:48:30;102583.53;;;6.24;74.52
67013;BME280;53926;47.406;19.188;2023-02-10T08:50:58;102575.56;;;6.69;69.99
67013;BME280;53926;47.406;19.188;2023-02-10T08:53:25;102577.66;;;6.96;67.56
67013;BME280;53926;47.406;19.188;2023-02-10T08:56:01;102568.78;;;7.20;64.38
67013;BME280;53926;47.406;19.188;2023-02-10T08:58:29;102575.03;;;7.89;58.72
67013;BME280;53926;47.406;19.188;2023-02-10T09:00:56;102569.75;;;8.39;61.18
67013;BME280;53926;47.406;19.188;2023-02-10T09:03:22;102587.28;;;6.52;55.24
67013;BME280;53926;47.406;19.188;2023-02-10T09:05:49;102598.47;;;6.09;55.76
67013;BME280;53926;47.406;19.188;2023-02-10T09:08:17;102591.94;;;8.53;54.63
67013;BME280;53926;47.406;19.188;2023-02-10T09:10:45;102596.88;;;7.86;51.32
67013;BME280;53926;47.406;19.188;2023-02-10T09:13:12;102591.34;;;7.29;54.86
67013;BME280;53926;47.406;19.188;2023-02-10T09:15:41;102588.47;;;7.32;57.08
67013;BME280;53926;47.406;19.188;2023-02-10T09:18:09;102589.84;;;8.37;51.23
67013;BME280;53926;47.406;19.188;2023-02-10T09:20:36;102595.91;;;9.15;50.56
67013;BME280;53926;47.406;19.188;2023-02-10T09:23:03;102582.06;;;7.67;50.96
67013;BME280;53926;47.406;19.188;2023-02-10T09:25:29;102581.34;;;8.06;55.97
67013;BME280;53926;47.406;19.188;2023-02-10T09:27:57;102569.81;;;10.17;43.90
67013;BME280;53926;47.406;19.188;2023-02-10T09:30:25;102573.31;;;10.88;42.91
67013;BME280;53926;47.406;19.188;2023-02-10T09:32:52;102566.91;;;9.75;43.54
67013;BME280;53926;47.406;19.188;2023-02-10T09:35:19;102574.28;;;9.61;44.42
67013;BME280;53926;47.406;19.188;2023-02-10T09:37:46;102569.37;;;9.48;46.09
67013;BME280;53926;47.406;19.188;2023-02-10T09:40:22;102569.94;;;9.80;43.03
67013;BME280;53926;47.406;19.188;2023-02-10T09:46:13;102587.44;;;9.78;41.67
67013;BME280;53926;47.406;19.188;2023-02-10T09:49:22;102581.78;;;9.37;41.90
67013;BME280;53926;47.406;19.188;2023-02-10T09:54:43;102584.09;;;8.34;43.62
67013;BME280;53926;47.406;19.188;2023-02-10T09:57:16;102576.63;;;8.50;42.50
67013;BME280;53926;47.406;19.188;2023-02-10T09:59:46;102571.75;;;10.15;42.92
67013;BME280;53926;47.406;19.188;2023-02-10T10:04:44;102571.38;;;8.89;44.11
67013;BME280;53926;47.406;19.188;2023-02-10T10:07:13;102580.31;;;8.67;44.02
67013;BME280;53926;47.406;19.188;2023-02-10T10:09:46;102572.63;;;8.75;42.82
67013;BME280;53926;47.406;19.188;2023-02-10T10:12:19;102571.66;;;9.61;42.18
67013;BME280;53926;47.406;19.188;2023-02-10T10:14:46;102558.50;;;8.98;40.70
67013;BME280;53926;47.406;19.188;2023-02-10T10:28:42;102546.53;;;8.57;43.18
67013;BME280;53926;47.406;19.188;2023-02-10T10:31:16;102555.47;;;9.12;41.91
67013;BME280;53926;47.406;19.188;2023-02-10T10:33:58;102555.00;;;8.40;42.31
67013;BME280;53926;47.406;19.188;2023-02-10T10:36:35;102556.50;;;7.53;42.75
67013;BME280;53926;47.406;19.188;2023-02-10T10:39:28;102556.34;;;8.34;42.70
67013;BME280;53926;47.406;19.188;2023-02-10T10:41:59;102545.06;;;9.68;40.12
67013;BME280;53926;47.406;19.188;2023-02-10T10:44:27;102555.44;;;10.13;38.33
67013;BME280;53926;47.406;19.188;2023-02-10T10:47:06;102548.44;;;10.50;36.39
67013;BME280;53926;47.406;19.188;2023-02-10T10:49:38;102552.59;;;9.43;39.70
67013;BME280;53926;47.406;19.188;2023-02-10T10:52:26;102557.75;;;8.48;42.21
67013;BME280;53926;47.406;19.188;2023-02-10T10:54:58;102546.91;;;8.82;40.22
67013;BME280;53926;47.406;19.188;2023-02-10T10:57:25;102548.19;;;9.16;38.57
67013;BME280;53926;47.406;19.188;2023-02-10T11:00:19;102536.53;;;9.75;38.53
67013;BME280;53926;47.406;19.188;2023-02-10T11:03:01;102535.69;;;9.29;38.48
67013;BME280;53926;47.406;19.188;2023-02-10T11:05:35;102530.66;;;10.45;37.09
67013;BME280;53926;47.406;19.188;2023-02-10T11:08:04;102528.63;;;9.39;38.10
67013;BME280;53926;47.406;19.188;2023-02-10T11:12:59;102523.88;;;10.16;36.94
67013;BME280;53926;47.406;19.188;2023-02-10T11:15:33;102513.31;;;11.66;33.94
67013;BME280;53926;47.406;19.188;2023-02-10T11:18:00;102505.72;;;11.21;35.88
67013;BME280;53926;47.406;19.188;2023-02-10T11:20:34;102501.34;;;10.96;35.77
67013;BME280;53926;47.406;19.188;2023-02-10T11:23:10;102498.25;;;8.84;39.45
67013;BME280;53926;47.406;19.188;2023-02-10T11:25:38;102489.56;;;9.31;38.22
67013;BME280;53926;47.406;19.188;2023-02-10T11:28:14;102487.37;;;8.12;39.71
67013;BME280;53926;47.406;19.188;2023-02-10T11:30:42;102485.34;;;7.96;40.90
67013;BME280;53926;47.406;19.188;2023-02-10T11:33:21;102477.97;;;7.22;43.56
67013;BME280;53926;47.406;19.188;2023-02-10T11:35:52;102499.91;;;10.05;38.48
67013;BME280;53926;47.406;19.188;2023-02-10T11:38:22;102489.47;;;9.87;38.15
67013;BME280;53926;47.406;19.188;2023-02-10T11:43:17;102497.84;;;9.62;37.59
67013;BME280;53926;47.406;19.188;2023-02-10T11:45:57;102499.22;;;9.39;38.53
67013;BME280;53926;47.406;19.188;2023-02-10T11:48:27;102488.59;;;9.32;37.82
67013;BME280;53926;47.406;19.188;2023-02-10T11:51:15;102490.44;;;10.92;35.95
67013;BME280;53926;47.406;19.188;2023-02-10T11:53:44;102488.56;;;9.60;37.54
67013;BME280;53926;47.406;19.188;2023-02-10T11:56:26;102474.84;;;10.48;34.46
67013;BME280;53926;47.406;19.188;2023-02-10T12:10:42;102448.31;;;9.18;35.74
67013;BME280;53926;47.406;19.188;2023-02-10T12:18:58;102427.00;;;9.33;35.86
67013;BME280;53926;47.406;19.188;2023-02-10T12:24:33;102425.31;;;9.41;35.73
67013;BME280;53926;47.406;19.188;2023-02-10T12:27:17;102430.78;;;8.92;34.64
67013;BME280;53926;47.406;19.188;2023-02-10T12:30:19;102426.59;;;8.82;34.73
67013;BME280;53926;47.406;19.188;2023-02-10T12:49:23;102403.16;;;8.91;36.79
67013;BME280;53926;47.406;19.188;2023-02-10T12:52:02;102399.59;;;7.88;37.97
67013;BME280;53926;47.406;19.188;2023-02-10T12:55:19;102392.91;;;7.95;38.17
67013;BME280;53926;47.406;19.188;2023-02-10T12:57:37;102396.63;;;8.50;38.50
67013;BME280;53926;47.406;19.188;2023-02-10T13:00:21;102393.19;;;7.63;38.27
67013;BME280;53926;47.406;19.188;2023-02-10T13:03:00;102391.41;;;8.02;37.73
67013;BME280;53926;47.406;19.188;2023-02-10T13:05:37;102402.59;;;8.03;38.81
67013;BME280;53926;47.406;19.188;2023-02-10T13:08:11;102397.13;;;8.63;37.89
67013;BME280;53926;47.406;19.188;2023-02-10T13:10:42;102403.63;;;8.30;37.79
67013;BME280;53926;47.406;19.188;2023-02-10T13:15:53;102405.72;;;6.57;41.31
67013;BME280;53926;47.406;19.188;2023-02-10T13:18:30;102411.94;;;5.70;43.17
67013;BME280;53926;47.406;19.188;2023-02-10T13:23:49;102408.88;;;6.60;42.79
67013;BME280;53926;47.406;19.188;2023-02-10T13:29:21;102410.97;;;6.46;42.16
67013;BME280;53926;47.406;19.188;2023-02-10T13:31:59;102403.25;;;4.93;45.86
67013;BME280;53926;47.406;19.188;2023-02-10T13:34:35;102406.19;;;4.89;47.18
67013;BME280;53926;47.406;19.188;2023-02-10T13:37:22;102411.69;;;4.73;47.55
67013;BME280;53926;47.406;19.188;2023-02-10T13:39:58;102421.59;;;5.57;45.12
67013;BME280;53926;47.406;19.188;2023-02-10T13:42:29;102416.66;;;5.86;44.41
67013;BME280;53926;47.406;19.188;2023-02-10T13:45:04;102411.09;;;6.02;44.28
67013;BME280;53926;47.406;19.188;2023-02-10T13:47:37;102405.66;;;5.84;44.65
67013;BME280;53926;47.406;19.188;2023-02-10T13:50:19;102402.44;;;5.91;44.16
67013;BME280;53926;47.406;19.188;2023-02-10T14:00:48;102395.56;;;5.81;44.82
67013;BME280;53926;47.406;19.188;2023-02-10T14:08:38;102391.09;;;6.77;42.80
67013;BME280;53926;47.406;19.188;2023-02-10T14:11:28;102395.41;;;6.15;43.94
67013;BME280;53926;47.406;19.188;2023-02-10T14:13:58;102397.28;;;6.13;43.33
67013;BME280;53926;47.406;19.188;2023-02-10T14:16:40;102407.00;;;5.99;44.16
67013;BME280;53926;47.406;19.188;2023-02-10T14:19:28;102399.50;;;5.64;44.62
67013;BME280;53926;47.406;19.188;2023-02-10T14:21:58;102393.53;;;5.84;44.91
67013;BME280;53926;47.406;19.188;2023-02-10T14:24:31;102392.44;;;5.11;46.40
67013;BME280;53926;47.406;19.188;2023-02-10T14:27:16;102393.84;;;4.70;48.25
67013;BME280;53926;47.406;19.188;2023-02-10T14:29:51;102382.00;;;4.56;48.82
67013;BME280;53926;47.406;19.188;2023-02-10T14:32:18;102387.22;;;4.20;49.49